createdAt,value
2019-06-20T00:02:27.728Z,3.12
2019-06-20T00:06:32.888Z,3.30
2019-06-20T00:10:37.689Z,2.83
2019-06-20T00:14:42.602Z,2.90
2019-06-20T00:18:48.497Z,2.83
2019-06-20T00:22:53.208Z,3.17
2019-06-20T00:26:58.044Z,2.92
2019-06-20T00:31:02.832Z,3.37
2019-06-20T00:35:08.277Z,2.67
2019-06-20T00:39:13.094Z,2.27
2019-06-20T00:43:18.477Z,2.08
2019-06-20T00:47:25.526Z,1.87
2019-06-20T00:51:31.370Z,1.60
2019-06-20T00:55:36.212Z,1.82
2019-06-20T00:59:40.996Z,2.10
2019-06-20T01:03:46.467Z,1.90
2019-06-20T01:07:51.260Z,1.50
2019-06-20T01:11:56.024Z,1.75
2019-06-20T01:16:01.017Z,1.67
2019-06-20T01:20:06.388Z,1.60
2019-06-20T01:24:12.513Z,1.70
2019-06-20T01:28:17.373Z,1.40
2019-06-20T01:32:22.168Z,1.70
2019-06-20T01:36:27.103Z,1.20
2019-06-20T01:40:31.808Z,1.30
2019-06-20T01:44:36.721Z,1.30
2019-06-20T01:48:43.932Z,1.42
2019-06-20T01:52:48.730Z,1.50
2019-06-20T01:56:53.662Z,1.50
2019-06-20T02:00:58.521Z,1.60
2019-06-20T02:05:04.195Z,1.70
2019-06-20T02:09:09.374Z,1.52
2019-06-20T02:13:14.181Z,1.87
2019-06-20T02:17:19.147Z,2.10
2019-06-20T02:21:24.000Z,1.70
2019-06-20T02:25:28.880Z,1.75
2019-06-20T02:29:33.677Z,1.77
2019-06-20T02:33:38.400Z,1.67
2019-06-20T02:37:43.188Z,1.40
2019-06-20T02:41:48.057Z,1.92
2019-06-20T02:45:53.053Z,2.05
2019-06-20T02:49:57.827Z,1.67
2019-06-20T02:54:05.887Z,1.60
2019-06-20T02:58:12.888Z,1.70
2019-06-20T03:02:17.672Z,1.87
2019-06-20T03:06:22.542Z,1.80
2019-06-20T03:10:27.472Z,1.72
2019-06-20T03:14:44.878Z,1.45
2019-06-20T03:18:39.155Z,1.70
2019-06-20T03:22:43.885Z,1.82
2019-06-20T03:26:48.814Z,2.20
2019-06-20T03:30:53.678Z,2.22
2019-06-20T03:34:58.764Z,2.20
2019-06-20T03:39:05.752Z,2.40
2019-06-20T03:43:10.467Z,2.40
2019-06-20T03:47:15.485Z,2.10
2019-06-20T03:51:20.188Z,2.35
2019-06-20T03:55:25.246Z,2.45
2019-06-20T03:59:29.964Z,2.60
2019-06-20T04:03:34.674Z,2.80
2019-06-20T04:07:39.757Z,2.25
2019-06-20T04:11:44.502Z,3.10
2019-06-20T04:15:50.121Z,2.83
2019-06-20T04:19:55.524Z,3.30
2019-06-20T04:24:00.524Z,2.85
2019-06-20T04:28:05.901Z,2.87
2019-06-20T04:32:10.628Z,3.00
2019-06-20T04:36:15.722Z,2.70
2019-06-20T04:40:20.584Z,3.08
2019-06-20T04:44:25.469Z,2.72
2019-06-20T04:48:30.189Z,2.90
2019-06-20T04:52:35.159Z,2.83
2019-06-20T04:56:40.255Z,2.52
2019-06-20T05:00:44.981Z,2.90
2019-06-20T05:04:49.844Z,3.02
2019-06-20T05:08:54.588Z,3.20
2019-06-20T05:12:59.296Z,2.72
2019-06-20T05:17:07.094Z,3.08
2019-06-20T05:21:10.517Z,3.25
2019-06-20T05:25:16.864Z,3.00
2019-06-20T05:29:21.581Z,3.15
2019-06-20T05:33:26.358Z,2.92
2019-06-20T05:37:31.335Z,2.70
2019-06-20T05:41:36.288Z,3.05
2019-06-20T05:45:44.449Z,2.52
2019-06-20T05:49:48.348Z,3.02
2019-06-20T05:53:53.338Z,2.70
2019-06-20T05:57:58.200Z,3.72
2019-06-20T06:02:03.123Z,2.77
2019-06-20T06:06:08.206Z,2.67
2019-06-20T06:10:13.394Z,2.85
2019-06-20T06:14:18.441Z,2.80
2019-06-20T06:18:24.994Z,2.17
2019-06-20T06:22:30.121Z,2.47
2019-06-20T06:26:35.184Z,2.42
2019-06-20T06:30:40.532Z,2.67
2019-06-20T06:34:45.870Z,2.70
2019-06-20T06:38:50.748Z,2.40
2019-06-20T06:42:56.699Z,2.90
2019-06-20T06:47:01.533Z,2.40
2019-06-20T06:51:06.836Z,2.40
2019-06-20T06:55:12.863Z,3.35
2019-06-20T06:59:17.746Z,2.45
2019-06-20T07:03:24.531Z,2.27
2019-06-20T07:07:31.383Z,2.90
2019-06-20T07:11:36.766Z,2.52
2019-06-20T07:15:43.344Z,2.72
2019-06-20T07:19:48.229Z,2.67
2019-06-20T07:23:53.257Z,2.92
2019-06-20T07:27:58.157Z,2.77
2019-06-20T07:32:03.051Z,2.37
2019-06-20T07:36:08.833Z,2.30
2019-06-20T07:40:14.624Z,2.22
2019-06-20T07:44:20.311Z,2.70
2019-06-20T07:48:25.188Z,2.58
2019-06-20T07:52:30.793Z,2.80
2019-06-20T07:56:46.776Z,2.50
2019-06-20T08:01:00.965Z,2.83
2019-06-20T08:05:06.915Z,2.50
2019-06-20T08:09:12.010Z,2.77
2019-06-20T08:13:17.229Z,2.80
2019-06-20T08:17:34.853Z,2.75
2019-06-20T08:21:29.252Z,3.27
2019-06-20T08:25:35.159Z,3.05
2019-06-20T08:29:41.816Z,2.72
2019-06-20T08:33:46.711Z,3.70
2019-06-20T08:37:52.528Z,3.25
2019-06-20T08:41:59.241Z,3.05
2019-06-20T08:46:06.241Z,2.85
2019-06-20T08:50:11.292Z,2.40
2019-06-20T08:54:16.120Z,2.70
2019-06-20T08:58:21.017Z,2.70
2019-06-20T09:02:25.937Z,2.40
2019-06-20T09:06:31.499Z,2.65
2019-06-20T09:10:40.428Z,2.72
2019-06-20T09:14:45.491Z,2.50
2019-06-20T09:18:53.271Z,2.52
2019-06-20T09:22:58.916Z,2.90
2019-06-20T09:27:05.922Z,2.83
2019-06-20T09:31:10.874Z,2.60
2019-06-20T09:35:17.169Z,2.90
2019-06-20T09:39:22.120Z,3.10
2019-06-20T09:43:27.960Z,3.22
2019-06-20T09:47:33.420Z,3.45
2019-06-20T09:51:38.885Z,3.10
2019-06-20T09:55:44.249Z,2.80
2019-06-20T10:00:03.102Z,2.47
2019-06-20T10:03:56.840Z,2.90
2019-06-20T10:08:03.671Z,2.52
2019-06-20T10:12:09.498Z,2.52
2019-06-20T10:16:15.293Z,2.50
2019-06-20T10:20:20.963Z,2.17
2019-06-20T10:24:27.048Z,2.92
2019-06-20T10:28:32.086Z,2.87
2019-06-20T10:32:37.441Z,3.60
2019-06-20T10:36:44.831Z,2.60
2019-06-20T10:40:50.313Z,2.45
2019-06-20T10:44:56.749Z,2.70
2019-06-20T10:49:01.904Z,2.98
2019-06-20T10:53:07.843Z,2.40
2019-06-20T10:57:14.150Z,2.77
2019-06-20T11:01:24.126Z,3.02
2019-06-20T11:05:29.576Z,3.15
2019-06-20T11:09:35.949Z,3.47
2019-06-20T11:13:42.209Z,3.10
2019-06-20T11:17:48.993Z,4.85
2019-06-20T11:21:57.690Z,3.60
2019-06-20T11:26:06.683Z,4.55
2019-06-20T11:30:17.860Z,3.70
2019-06-20T11:34:24.362Z,2.90
2019-06-20T11:38:32.007Z,3.83
2019-06-20T11:42:39.848Z,3.35
2019-06-20T11:46:47.574Z,2.98
2019-06-20T11:50:59.477Z,3.55
2019-06-20T11:55:08.210Z,3.37
2019-06-20T11:59:21.128Z,3.42
2019-06-20T12:03:28.301Z,3.17
2019-06-20T12:07:35.444Z,3.05
2019-06-20T12:11:42.812Z,2.87
2019-06-20T12:15:49.019Z,3.60
2019-06-20T12:20:00.606Z,3.17
2019-06-20T12:24:08.436Z,3.52
2019-06-20T12:28:15.314Z,3.20
2019-06-20T12:32:25.863Z,2.92
2019-06-20T12:36:39.628Z,4.27
2019-06-20T12:40:47.149Z,2.30
2019-06-20T12:44:56.791Z,2.15
2019-06-20T12:49:04.408Z,2.00
2019-06-20T12:53:15.986Z,2.02
2019-06-20T12:57:24.141Z,5.30
2019-06-20T13:01:40.658Z,2.90
2019-06-20T13:05:47.092Z,2.33
2019-06-20T13:09:56.561Z,2.00
2019-06-20T13:14:04.353Z,2.45
2019-06-20T13:18:09.673Z,3.30
2019-06-20T13:22:14.494Z,2.33
2019-06-20T13:26:19.366Z,2.62
2019-06-20T13:30:26.662Z,3.30
2019-06-20T13:34:32.757Z,3.90
2019-06-20T13:38:44.517Z,2.92
2019-06-20T13:42:50.303Z,2.95
2019-06-20T13:46:56.068Z,3.00
2019-06-20T13:51:00.980Z,2.70
2019-06-20T13:55:08.472Z,3.17
2019-06-20T13:59:13.483Z,3.00
2019-06-20T14:03:18.443Z,3.08
2019-06-20T14:07:24.630Z,2.30
2019-06-20T14:11:29.528Z,2.55
2019-06-20T14:15:34.533Z,2.92
2019-06-20T14:19:39.445Z,2.60
2019-06-20T14:23:46.047Z,2.95
2019-06-20T14:27:51.594Z,2.75
2019-06-20T14:31:58.371Z,6.10
2019-06-20T14:36:05.980Z,6.22
2019-06-20T14:40:24.482Z,10.10
2019-06-20T14:44:30.147Z,9.33
2019-06-20T14:48:36.369Z,9.58
2019-06-20T14:52:42.693Z,8.48
2019-06-20T14:56:48.119Z,8.40
2019-06-20T15:00:55.774Z,7.40
2019-06-20T15:05:05.151Z,5.33
2019-06-20T15:09:10.076Z,5.10
2019-06-20T15:13:17.768Z,4.90
2019-06-20T15:17:24.851Z,4.50
2019-06-20T15:21:32.165Z,5.95
2019-06-20T15:25:37.240Z,5.35
2019-06-20T15:29:42.157Z,6.55
2019-06-20T15:33:47.920Z,5.53
2019-06-20T15:37:55.602Z,7.87
2019-06-20T15:42:00.729Z,7.42
2019-06-20T15:46:05.815Z,7.75
2019-06-20T15:50:10.882Z,9.43
2019-06-20T15:54:16.116Z,8.00
2019-06-20T15:58:21.988Z,9.03
2019-06-20T16:02:26.935Z,6.78
2019-06-20T16:06:32.144Z,9.08
2019-06-20T16:10:37.193Z,6.97
2019-06-20T16:14:46.218Z,9.25
2019-06-20T16:18:51.511Z,7.58
2019-06-20T16:22:56.476Z,7.08
2019-06-20T16:27:01.608Z,5.47
2019-06-20T16:31:10.269Z,6.45
2019-06-20T16:35:13.696Z,5.83
2019-06-20T16:39:21.945Z,5.60
2019-06-20T16:43:26.860Z,3.95
2019-06-20T16:47:32.400Z,3.55
2019-06-20T16:51:37.224Z,4.05
2019-06-20T16:55:42.135Z,4.33
2019-06-20T16:59:47.062Z,4.08
2019-06-20T17:03:52.991Z,3.70
2019-06-20T17:07:58.037Z,3.83
2019-06-20T17:12:02.908Z,4.10
2019-06-20T17:16:08.447Z,3.77
2019-06-20T17:20:15.129Z,3.50
2019-06-20T17:24:43.633Z,3.27
2019-06-20T17:29:26.332Z,4.33
2019-06-20T17:34:05.876Z,3.62
2019-06-20T17:38:11.713Z,4.42
2019-06-20T17:42:18.080Z,4.30
2019-06-20T17:46:23.179Z,5.00
2019-06-20T17:50:28.656Z,4.37
2019-06-20T17:54:33.778Z,3.77
2019-06-20T17:58:41.281Z,3.80
2019-06-20T18:02:47.778Z,4.10
2019-06-20T18:06:53.868Z,4.33
2019-06-20T18:10:58.821Z,3.65
2019-06-20T18:15:07.058Z,3.47
2019-06-20T18:19:16.430Z,4.53
2019-06-20T18:23:22.718Z,3.90
2019-06-20T18:27:27.639Z,5.30
2019-06-20T18:31:34.027Z,9.08
2019-06-20T18:35:39.019Z,5.65
2019-06-20T18:39:43.925Z,4.35
2019-06-20T18:43:48.775Z,6.78
2019-06-20T18:47:53.692Z,4.72
2019-06-20T18:52:00.156Z,4.70
2019-06-20T18:56:05.322Z,5.12
2019-06-20T19:00:13.632Z,6.70
2019-06-20T19:04:19.190Z,5.67
2019-06-20T19:08:24.064Z,7.47
2019-06-20T19:12:29.011Z,5.90
2019-06-20T19:16:33.929Z,5.00
2019-06-20T19:20:38.750Z,5.90
2019-06-20T19:24:43.574Z,5.17
2019-06-20T19:28:48.490Z,5.35
2019-06-20T19:32:53.389Z,5.40
2019-06-20T19:36:59.008Z,5.28
2019-06-20T19:41:03.922Z,5.08
2019-06-20T19:45:12.371Z,5.80
2019-06-20T19:49:17.310Z,5.60
2019-06-20T19:53:22.288Z,5.17
2019-06-20T19:57:27.293Z,5.78
2019-06-20T20:01:32.526Z,5.17
2019-06-20T20:05:38.799Z,5.28
2019-06-20T20:09:44.123Z,6.30
2019-06-20T20:13:49.402Z,5.72
2019-06-20T20:17:54.569Z,5.40
2019-06-20T20:21:59.488Z,5.65
2019-06-20T20:26:07.739Z,5.17
2019-06-20T20:30:11.937Z,5.75
2019-06-20T20:34:17.442Z,5.55
2019-06-20T20:38:23.496Z,4.40
2019-06-20T20:42:28.408Z,4.53
2019-06-20T20:46:33.329Z,4.58
2019-06-20T20:50:38.227Z,5.75
2019-06-20T20:54:44.171Z,5.40
2019-06-20T20:58:50.600Z,5.08
2019-06-20T21:02:56.401Z,4.70
2019-06-20T21:07:02.076Z,5.10
2019-06-20T21:11:07.289Z,4.97
2019-06-20T21:15:12.855Z,4.67
2019-06-20T21:19:17.755Z,5.90
2019-06-20T21:23:22.600Z,6.85
2019-06-20T21:27:27.508Z,6.15
2019-06-20T21:31:33.864Z,6.83
2019-06-20T21:35:38.777Z,5.60
2019-06-20T21:39:43.676Z,7.00
2019-06-20T21:43:48.963Z,7.80
2019-06-20T21:47:53.861Z,6.95
2019-06-20T21:51:59.306Z,7.03
2019-06-20T21:56:04.233Z,5.83
2019-06-20T22:00:13.795Z,7.03
2019-06-20T22:04:20.344Z,7.03
2019-06-20T22:08:25.269Z,6.65
2019-06-20T22:12:30.162Z,5.22
2019-06-20T22:16:35.858Z,6.12
2019-06-20T22:20:40.780Z,6.50
2019-06-20T22:24:46.167Z,4.85
2019-06-20T22:28:51.165Z,5.55
2019-06-20T22:32:56.064Z,6.08
2019-06-20T22:37:02.051Z,10.00
2019-06-20T22:41:06.964Z,5.03
2019-06-20T22:45:12.909Z,4.60
2019-06-20T22:49:17.730Z,5.70
2019-06-20T22:53:22.575Z,4.67
2019-06-20T22:57:27.529Z,5.37
2019-06-20T23:01:32.495Z,6.60
2019-06-20T23:05:37.553Z,5.70
2019-06-20T23:09:42.445Z,5.30
2019-06-20T23:13:47.564Z,5.08
2019-06-20T23:17:52.429Z,5.20
2019-06-20T23:21:57.344Z,5.20
2019-06-20T23:26:05.125Z,5.25
2019-06-20T23:30:12.206Z,5.22
2019-06-20T23:34:17.296Z,4.50
2019-06-20T23:38:22.118Z,5.20
2019-06-20T23:42:27.021Z,5.12
2019-06-20T23:46:33.123Z,4.87
2019-06-20T23:50:38.069Z,4.87
2019-06-20T23:54:43.054Z,4.17
2019-06-20T23:58:47.873Z,4.12
